createdAt,value
2023-04-19T00:01:11.293Z,12.93
2023-04-19T00:03:39.577Z,13.40
2023-04-19T00:06:10.386Z,11.70
2023-04-19T00:08:38.792Z,12.20
2023-04-19T00:11:06.878Z,15.73
2023-04-19T00:13:36.477Z,12.20
2023-04-19T00:16:08.297Z,13.07
2023-04-19T00:18:36.588Z,12.60
2023-04-19T00:21:05.633Z,11.93
2023-04-19T00:23:37.030Z,11.47
2023-04-19T00:26:05.896Z,12.47
2023-04-19T00:28:36.204Z,11.87
2023-04-19T00:31:04.843Z,13.23
2023-04-19T00:33:34.286Z,12.37
2023-04-19T00:36:02.615Z,12.93
2023-04-19T00:38:31.221Z,11.47
2023-04-19T00:40:59.747Z,12.90
2023-04-19T00:43:28.057Z,13.77
2023-04-19T00:45:57.877Z,14.27
2023-04-19T00:48:28.792Z,14.13
2023-04-19T00:50:57.346Z,13.97
2023-04-19T00:53:25.649Z,14.57
2023-04-19T00:55:55.377Z,16.27
2023-04-19T00:58:24.175Z,14.90
2023-04-19T01:00:52.528Z,14.77
2023-04-19T01:03:23.477Z,16.57
2023-04-19T01:05:52.507Z,16.77
2023-04-19T01:08:20.661Z,13.60
2023-04-19T01:10:48.703Z,13.50
2023-04-19T01:13:17.409Z,14.30
2023-04-19T01:15:45.873Z,13.33
2023-04-19T01:18:15.073Z,15.10
2023-04-19T01:20:45.498Z,15.63
2023-04-19T01:23:15.071Z,13.30
2023-04-19T01:25:43.178Z,14.17
2023-04-19T01:28:11.627Z,19.20
2023-04-19T01:30:39.967Z,15.33
2023-04-19T01:33:09.165Z,15.83
2023-04-19T01:35:37.362Z,13.63
2023-04-19T01:38:05.551Z,14.97
2023-04-19T01:40:35.371Z,14.40
2023-04-19T01:43:08.435Z,14.50
2023-04-19T01:45:37.432Z,14.70
2023-04-19T01:48:06.098Z,14.73
2023-04-19T01:50:35.864Z,14.53
2023-04-19T01:53:06.216Z,15.00
2023-04-19T01:55:36.325Z,15.43
2023-04-19T01:58:04.420Z,14.20
2023-04-19T02:00:33.052Z,16.13
2023-04-19T02:03:05.923Z,13.33
2023-04-19T02:05:34.147Z,15.30
2023-04-19T02:08:05.534Z,14.53
2023-04-19T02:10:37.572Z,15.83
2023-04-19T02:13:05.797Z,13.70
2023-04-19T02:15:35.383Z,13.93
2023-04-19T02:18:06.854Z,13.33
2023-04-19T02:20:35.364Z,13.87
2023-04-19T02:23:05.054Z,14.97
2023-04-19T02:25:33.186Z,14.13
2023-04-19T02:28:02.752Z,15.00
2023-04-19T02:30:31.519Z,15.23
2023-04-19T02:32:59.862Z,14.93
2023-04-19T02:35:28.591Z,16.80
2023-04-19T02:38:00.288Z,16.67
2023-04-19T02:40:28.829Z,16.50
2023-04-19T02:42:59.891Z,15.20
2023-04-19T02:45:29.298Z,15.63
2023-04-19T02:47:58.849Z,15.07
2023-04-19T02:50:28.362Z,17.30
2023-04-19T02:52:56.899Z,14.93
2023-04-19T02:55:27.207Z,15.20
2023-04-19T02:58:05.955Z,15.73
2023-04-19T03:00:39.934Z,16.40
2023-04-19T03:03:12.268Z,18.03
2023-04-19T03:05:40.571Z,16.03
2023-04-19T03:08:10.861Z,15.73
2023-04-19T03:10:39.318Z,16.77
2023-04-19T03:13:07.727Z,15.53
2023-04-19T03:15:36.362Z,16.77
2023-04-19T03:18:06.386Z,14.70
2023-04-19T03:20:36.114Z,14.77
2023-04-19T03:23:04.794Z,17.53
2023-04-19T03:25:34.494Z,16.10
2023-04-19T03:28:16.785Z,15.50
2023-04-19T03:31:04.792Z,15.37
2023-04-19T03:33:34.499Z,16.57
2023-04-19T03:36:02.678Z,16.23
2023-04-19T03:38:30.909Z,16.07
2023-04-19T03:41:02.425Z,16.50
2023-04-19T03:43:36.135Z,15.40
2023-04-19T03:46:04.697Z,15.47
2023-04-19T03:48:35.659Z,16.57
2023-04-19T03:51:04.761Z,15.73
2023-04-19T03:53:33.095Z,14.80
2023-04-19T03:56:01.494Z,16.67
2023-04-19T03:58:30.123Z,17.20
2023-04-19T04:01:05.615Z,16.37
2023-04-19T04:03:35.648Z,17.23
2023-04-19T04:06:05.983Z,16.30
2023-04-19T04:08:34.420Z,16.43
2023-04-19T04:11:02.287Z,18.23
2023-04-19T04:13:31.041Z,15.87
2023-04-19T04:16:08.727Z,17.73
2023-04-19T04:18:39.015Z,15.50
2023-04-19T04:21:11.154Z,15.50
2023-04-19T04:23:42.895Z,14.87
2023-04-19T04:26:17.630Z,15.67
2023-04-19T04:29:01.890Z,15.50
2023-04-19T04:31:31.777Z,15.40
2023-04-19T04:34:01.522Z,17.10
2023-04-19T04:36:31.113Z,17.47
2023-04-19T04:39:01.951Z,18.10
2023-04-19T04:41:31.520Z,17.40
2023-04-19T04:44:12.470Z,14.07
2023-04-19T04:46:50.769Z,17.23
2023-04-19T04:49:26.348Z,16.73
2023-04-19T04:51:54.316Z,17.60
2023-04-19T04:54:23.260Z,18.57
2023-04-19T04:56:53.308Z,18.70
2023-04-19T04:59:21.242Z,16.80
2023-04-19T05:01:50.898Z,15.50
2023-04-19T05:04:19.826Z,15.67
2023-04-19T05:06:49.158Z,15.77
2023-04-19T05:09:22.926Z,15.33
2023-04-19T05:11:51.792Z,16.80
2023-04-19T05:14:20.368Z,15.17
2023-04-19T05:16:52.343Z,14.50
2023-04-19T05:19:24.122Z,16.23
2023-04-19T05:22:00.270Z,18.10
2023-04-19T05:24:28.138Z,16.37
2023-04-19T05:26:57.121Z,15.17
2023-04-19T05:29:26.893Z,16.13
2023-04-19T05:31:56.533Z,14.77
2023-04-19T05:34:33.499Z,15.43
2023-04-19T05:37:03.963Z,14.30
2023-04-19T05:39:32.092Z,15.63
2023-04-19T05:42:02.424Z,15.43
2023-04-19T05:44:31.885Z,15.13
2023-04-19T05:47:00.078Z,14.80
2023-04-19T05:49:57.229Z,17.10
2023-04-19T05:52:42.182Z,17.60
2023-04-19T05:55:10.761Z,14.63
2023-04-19T05:57:43.666Z,15.10
2023-04-19T06:00:12.712Z,14.30
2023-04-19T06:02:50.901Z,16.57
2023-04-19T06:05:19.273Z,16.33
2023-04-19T06:07:55.037Z,14.57
2023-04-19T06:10:23.570Z,16.17
2023-04-19T06:12:51.452Z,13.67
2023-04-19T06:15:19.499Z,14.00
2023-04-19T06:17:48.078Z,13.70
2023-04-19T06:20:16.104Z,14.40
2023-04-19T06:22:45.970Z,14.03
2023-04-19T06:25:15.509Z,15.30
2023-04-19T06:27:43.537Z,13.13
2023-04-19T06:30:14.419Z,14.90
2023-04-19T06:32:42.485Z,13.67
2023-04-19T06:35:10.849Z,12.37
2023-04-19T06:37:38.878Z,10.60
2023-04-19T06:40:08.524Z,14.30
2023-04-19T06:42:37.879Z,14.00
2023-04-19T06:45:08.866Z,13.77
2023-04-19T06:47:37.049Z,13.50
2023-04-19T06:50:05.634Z,12.97
2023-04-19T06:52:33.560Z,13.33
2023-04-19T06:55:01.684Z,12.90
2023-04-19T06:57:29.612Z,17.87
2023-04-19T06:59:59.121Z,13.33
2023-04-19T07:02:27.165Z,12.30
2023-04-19T07:04:55.863Z,11.87
2023-04-19T07:07:24.147Z,14.23
2023-04-19T07:09:52.270Z,13.27
2023-04-19T07:12:20.607Z,11.67
2023-04-19T07:14:48.704Z,14.07
2023-04-19T07:17:18.736Z,12.63
2023-04-19T07:19:48.636Z,13.47
2023-04-19T07:22:16.694Z,13.97
2023-04-19T07:24:45.337Z,11.53
2023-04-19T07:27:14.372Z,16.57
2023-04-19T07:29:43.346Z,12.43
2023-04-19T07:32:11.627Z,14.17
2023-04-19T07:34:43.722Z,12.23
2023-04-19T07:37:11.692Z,13.27
2023-04-19T07:39:39.632Z,12.60
2023-04-19T07:42:07.615Z,13.60
2023-04-19T07:44:35.661Z,11.97
2023-04-19T07:47:06.748Z,11.20
2023-04-19T07:49:35.798Z,10.17
2023-04-19T07:52:08.791Z,10.53
2023-04-19T07:54:39.410Z,10.60
2023-04-19T07:57:07.777Z,9.73
2023-04-19T07:59:35.707Z,14.00
2023-04-19T08:02:03.768Z,10.23
2023-04-19T08:04:32.551Z,10.10
2023-04-19T08:07:02.224Z,11.17
2023-04-19T08:09:32.927Z,12.23
2023-04-19T08:12:01.337Z,9.90
2023-04-19T08:14:40.291Z,9.83
2023-04-19T08:17:25.123Z,11.00
2023-04-19T08:19:55.043Z,9.73
2023-04-19T08:22:22.914Z,9.03
2023-04-19T08:24:52.801Z,9.03
2023-04-19T08:27:21.243Z,8.97
2023-04-19T08:29:49.262Z,8.93
2023-04-19T08:32:17.284Z,10.80
2023-04-19T08:34:46.307Z,10.53
2023-04-19T08:37:14.285Z,8.13
2023-04-19T08:39:42.137Z,10.50
2023-04-19T08:42:24.719Z,10.37
2023-04-19T08:45:26.123Z,9.20
2023-04-19T08:47:59.574Z,9.50
2023-04-19T08:50:45.328Z,10.03
2023-04-19T08:53:25.671Z,11.93
2023-04-19T08:58:50.363Z,11.17
2023-04-19T09:01:34.096Z,13.57
2023-04-19T09:04:26.329Z,11.20
2023-04-19T09:06:54.141Z,11.87
2023-04-19T09:09:36.510Z,10.07
2023-04-19T09:12:17.572Z,13.13
2023-04-19T09:17:19.194Z,11.17
2023-04-19T09:19:48.940Z,11.60
2023-04-19T09:22:17.401Z,11.03
2023-04-19T09:25:22.572Z,11.93
2023-04-19T09:27:37.464Z,12.17
2023-04-19T09:30:14.784Z,10.97
2023-04-19T09:32:49.906Z,10.47
2023-04-19T09:35:20.145Z,9.87
2023-04-19T09:38:05.746Z,9.90
2023-04-19T09:40:34.831Z,10.23
2023-04-19T09:43:22.959Z,11.17
2023-04-19T09:45:52.592Z,12.07
2023-04-19T09:48:20.937Z,10.07
2023-04-19T09:50:58.838Z,9.20
2023-04-19T09:53:29.863Z,8.33
2023-04-19T09:56:02.337Z,9.07
2023-04-19T09:58:42.490Z,9.03
2023-04-19T10:01:21.993Z,8.37
2023-04-19T10:03:51.587Z,10.10
2023-04-19T10:08:55.679Z,10.40
2023-04-19T10:11:25.114Z,11.07
2023-04-19T10:13:58.511Z,9.90
2023-04-19T10:16:28.505Z,10.43
2023-04-19T10:18:57.657Z,10.10
2023-04-19T10:21:27.836Z,8.83
2023-04-19T10:23:56.795Z,9.80
2023-04-19T10:26:24.842Z,11.00
2023-04-19T10:28:57.493Z,9.83
2023-04-19T10:31:28.221Z,9.50
2023-04-19T10:33:57.476Z,9.80
2023-04-19T10:36:28.620Z,11.23
2023-04-19T10:38:57.010Z,9.67
2023-04-19T10:41:25.114Z,10.13
2023-04-19T10:44:11.421Z,9.63
2023-04-19T10:46:41.448Z,9.47
2023-04-19T10:49:13.631Z,12.27
2023-04-19T10:51:48.615Z,10.50
2023-04-19T10:54:31.564Z,9.07
2023-04-19T10:57:04.736Z,9.57
2023-04-19T10:59:33.557Z,10.60
2023-04-19T11:02:04.688Z,10.77
2023-04-19T11:08:07.696Z,11.73
2023-04-19T11:10:37.087Z,9.47
2023-04-19T11:13:25.332Z,9.67
2023-04-19T11:16:26.109Z,10.20
2023-04-19T11:19:12.317Z,11.27
2023-04-19T11:21:49.484Z,10.03
2023-04-19T11:24:53.448Z,9.33
2023-04-19T11:27:24.315Z,11.67
2023-04-19T11:30:08.203Z,11.47
2023-04-19T11:32:50.092Z,13.03
2023-04-19T11:35:21.255Z,12.40
2023-04-19T11:37:56.609Z,11.90
2023-04-19T11:40:36.775Z,12.33
2023-04-19T11:43:12.010Z,15.23
2023-04-19T11:45:40.597Z,15.20
2023-04-19T11:48:15.731Z,13.50
2023-04-19T11:50:46.960Z,13.47
2023-04-19T11:53:17.184Z,13.63
2023-04-19T11:55:49.244Z,14.60
2023-04-19T11:58:29.781Z,13.33
2023-04-19T12:01:01.144Z,15.63
2023-04-19T12:03:31.637Z,15.07
2023-04-19T12:06:04.156Z,14.27
2023-04-19T12:08:35.151Z,15.23
2023-04-19T12:11:08.053Z,16.57
2023-04-19T12:13:42.080Z,14.87
2023-04-19T12:16:10.864Z,15.63
2023-04-19T12:18:49.272Z,17.87
2023-04-19T12:21:27.917Z,21.57
2023-04-19T12:23:57.698Z,15.43
2023-04-19T12:26:28.632Z,18.43
2023-04-19T12:28:57.136Z,15.47
2023-04-19T12:31:25.373Z,16.37
2023-04-19T12:33:54.880Z,19.30
2023-04-19T12:36:23.824Z,16.33
2023-04-19T12:38:52.713Z,16.93
2023-04-19T12:41:28.882Z,16.00
2023-04-19T12:44:18.338Z,16.60
2023-04-19T12:46:46.529Z,17.47
2023-04-19T12:49:15.085Z,17.17
2023-04-19T12:51:44.659Z,16.13
2023-04-19T12:54:22.559Z,16.87
2023-04-19T12:56:53.634Z,16.03
2023-04-19T12:59:23.894Z,18.37
2023-04-19T13:01:52.958Z,14.50
2023-04-19T13:04:23.088Z,14.23
2023-04-19T13:06:52.578Z,17.00
2023-04-19T13:09:21.775Z,15.03
2023-04-19T13:11:50.058Z,14.93
2023-04-19T13:14:19.463Z,12.67
2023-04-19T13:16:50.879Z,13.53
2023-04-19T13:19:20.257Z,10.17
2023-04-19T13:22:07.304Z,11.77
2023-04-19T13:24:36.248Z,11.43
2023-04-19T13:27:12.801Z,10.20
2023-04-19T13:29:44.305Z,10.63
2023-04-19T13:32:21.295Z,9.27
2023-04-19T13:35:02.281Z,10.13
2023-04-19T13:37:34.408Z,9.30
2023-04-19T13:40:24.763Z,9.90
2023-04-19T13:42:57.285Z,8.90
2023-04-19T13:45:29.045Z,10.97
2023-04-19T13:48:07.857Z,10.57
2023-04-19T13:50:39.342Z,11.90
2023-04-19T13:53:13.397Z,10.70
2023-04-19T13:55:42.047Z,10.40
2023-04-19T13:58:11.364Z,10.97
2023-04-19T14:00:41.070Z,9.50
2023-04-19T14:03:11.530Z,8.17
2023-04-19T14:05:42.022Z,8.97
2023-04-19T14:08:11.189Z,10.70
2023-04-19T14:10:42.606Z,10.00
2023-04-19T14:13:10.849Z,11.07
2023-04-19T14:15:38.841Z,8.13
2023-04-19T14:18:08.052Z,7.83
2023-04-19T14:20:43.283Z,9.93
2023-04-19T14:23:21.980Z,9.50
2023-04-19T14:25:51.560Z,7.40
2023-04-19T14:28:20.702Z,8.83
2023-04-19T14:30:49.940Z,8.53
2023-04-19T14:33:19.078Z,8.87
2023-04-19T14:35:53.317Z,9.50
2023-04-19T14:38:33.575Z,9.03
2023-04-19T14:41:27.780Z,9.53
2023-04-19T14:43:59.703Z,10.37
2023-04-19T14:46:28.370Z,10.97
2023-04-19T14:48:57.563Z,10.37
2023-04-19T14:51:27.871Z,8.43
2023-04-19T14:53:56.202Z,10.20
2023-04-19T14:56:25.274Z,10.47
2023-04-19T14:58:57.019Z,9.03
2023-04-19T15:01:25.320Z,10.93
2023-04-19T15:03:53.820Z,9.53
2023-04-19T15:06:22.905Z,9.57
2023-04-19T15:08:53.823Z,9.67
2023-04-19T15:11:31.160Z,10.43
2023-04-19T15:14:21.663Z,9.20
2023-04-19T15:16:50.999Z,9.00
2023-04-19T15:19:20.929Z,8.57
2023-04-19T15:21:50.704Z,6.90
2023-04-19T15:24:29.568Z,7.07
2023-04-19T15:27:17.879Z,6.33
2023-04-19T15:29:48.120Z,8.33
2023-04-19T15:32:16.079Z,8.00
2023-04-19T15:34:43.883Z,8.73
2023-04-19T15:37:12.116Z,9.63
2023-04-19T15:39:41.604Z,9.33
2023-04-19T15:42:09.701Z,8.23
2023-04-19T15:44:37.737Z,12.80
2023-04-19T15:47:06.035Z,11.40
2023-04-19T15:49:34.013Z,8.93
2023-04-19T15:52:01.983Z,8.37
2023-04-19T15:54:30.460Z,8.37
2023-04-19T15:56:59.907Z,6.60
2023-04-19T15:59:27.712Z,9.20
2023-04-19T16:01:56.307Z,7.37
2023-04-19T16:04:24.798Z,7.00
2023-04-19T16:06:53.074Z,16.50
2023-04-19T16:09:22.765Z,8.67
2023-04-19T16:11:51.651Z,7.23
2023-04-19T16:14:21.501Z,8.67
2023-04-19T16:16:50.091Z,9.60
2023-04-19T16:19:21.939Z,7.97
2023-04-19T16:21:52.653Z,6.37
2023-04-19T16:24:20.723Z,8.03
2023-04-19T16:26:48.784Z,6.43
2023-04-19T16:29:16.927Z,5.30
2023-04-19T16:31:48.582Z,6.40
2023-04-19T16:34:20.007Z,5.70
2023-04-19T16:36:48.630Z,5.90
2023-04-19T16:39:17.288Z,9.63
2023-04-19T16:41:46.201Z,9.20
2023-04-19T16:44:14.786Z,7.53
2023-04-19T16:46:44.761Z,8.00
2023-04-19T16:49:14.507Z,7.80
2023-04-19T16:51:42.693Z,11.07
2023-04-19T16:54:11.401Z,10.47
2023-04-19T16:56:39.486Z,9.43
2023-04-19T16:59:08.124Z,10.47
2023-04-19T17:01:36.720Z,8.90
2023-04-19T17:04:04.957Z,9.30
2023-04-19T17:06:34.499Z,11.13
2023-04-19T17:09:04.880Z,10.23
2023-04-19T17:11:33.229Z,10.90
2023-04-19T17:14:01.352Z,8.43
2023-04-19T17:16:30.973Z,5.00
2023-04-19T17:19:01.546Z,3.53
2023-04-19T17:21:30.098Z,2.10
2023-04-19T17:24:00.508Z,1.90
2023-04-19T17:26:29.929Z,1.60
2023-04-19T17:28:59.908Z,2.73
2023-04-19T17:31:31.229Z,3.23
2023-04-19T17:34:00.072Z,2.20
2023-04-19T17:36:28.750Z,1.07
2023-04-19T17:38:57.046Z,1.40
2023-04-19T17:41:26.330Z,1.20
2023-04-19T17:43:55.445Z,2.27
2023-04-19T17:46:23.487Z,1.43
2023-04-19T17:48:52.698Z,1.50
2023-04-19T17:51:22.344Z,1.40
2023-04-19T17:53:51.470Z,1.63
2023-04-19T17:56:20.771Z,2.03
2023-04-19T17:58:50.332Z,2.20
2023-04-19T18:01:19.950Z,4.17
2023-04-19T18:03:49.030Z,2.87
2023-04-19T18:06:22.081Z,2.60
2023-04-19T18:08:50.407Z,4.13
2023-04-19T18:11:19.570Z,2.20
2023-04-19T18:13:47.352Z,2.53
2023-04-19T18:16:17.497Z,3.10
2023-04-19T18:18:45.968Z,3.10
2023-04-19T18:21:14.489Z,4.27
2023-04-19T18:23:42.780Z,2.50
2023-04-19T18:26:11.561Z,1.87
2023-04-19T18:28:40.193Z,2.17
2023-04-19T18:31:09.017Z,4.10
2023-04-19T18:33:39.024Z,3.50
2023-04-19T18:36:07.506Z,2.30
2023-04-19T18:38:35.765Z,2.67
2023-04-19T18:41:03.825Z,4.07
2023-04-19T18:43:32.009Z,3.13
2023-04-19T18:46:01.378Z,2.20
2023-04-19T18:48:29.973Z,2.07
2023-04-19T18:50:59.800Z,2.77
2023-04-19T18:53:29.587Z,4.40
2023-04-19T18:55:59.071Z,3.80
2023-04-19T18:58:27.484Z,2.20
2023-04-19T19:00:57.272Z,4.07
2023-04-19T19:05:59.926Z,2.23
2023-04-19T19:08:28.423Z,2.53
2023-04-19T19:11:18.349Z,1.97
2023-04-19T19:13:45.208Z,2.23
2023-04-19T19:16:13.481Z,2.87
2023-04-19T19:18:41.829Z,2.77
2023-04-19T19:21:14.447Z,3.50
2023-04-19T19:23:44.639Z,3.70
2023-04-19T19:26:13.756Z,5.47
2023-04-19T19:28:43.340Z,4.57
2023-04-19T19:31:12.562Z,2.80
2023-04-19T19:33:41.022Z,6.63
2023-04-19T19:36:09.558Z,2.47
2023-04-19T19:38:40.723Z,2.90
2023-04-19T19:43:45.292Z,4.37
2023-04-19T19:46:14.395Z,3.20
2023-04-19T19:48:43.133Z,2.73
2023-04-19T19:53:45.288Z,5.60
2023-04-19T19:56:21.399Z,2.93
2023-04-19T19:58:52.183Z,2.53
2023-04-19T20:01:22.549Z,3.20
2023-04-19T20:03:51.475Z,2.93
2023-04-19T20:07:13.468Z,2.47
2023-04-19T20:09:09.330Z,3.57
2023-04-19T20:11:37.731Z,2.40
2023-04-19T20:14:05.993Z,4.77
2023-04-19T20:16:35.344Z,3.90
2023-04-19T20:19:09.509Z,2.40
2023-04-19T20:21:37.984Z,3.67
2023-04-19T20:24:08.341Z,3.07
2023-04-19T20:26:36.572Z,3.73
2023-04-19T20:29:07.924Z,2.13
2023-04-19T20:31:35.871Z,4.03
2023-04-19T20:34:04.450Z,2.33
2023-04-19T20:36:33.066Z,4.57
2023-04-19T20:39:06.492Z,2.20
2023-04-19T20:41:36.013Z,2.33
2023-04-19T20:44:06.539Z,2.03
2023-04-19T20:46:35.606Z,2.80
2023-04-19T20:49:03.933Z,1.80
2023-04-19T20:51:32.700Z,1.90
2023-04-19T20:54:00.685Z,3.83
2023-04-19T20:56:28.723Z,3.97
2023-04-19T20:58:58.049Z,3.53
2023-04-19T21:01:26.308Z,3.00
2023-04-19T21:03:56.746Z,2.73
2023-04-19T21:06:24.858Z,2.23
2023-04-19T21:08:52.814Z,3.10
2023-04-19T21:11:21.005Z,5.23
2023-04-19T21:13:49.025Z,4.20
2023-04-19T21:16:18.531Z,3.83
2023-04-19T21:18:46.656Z,4.33
2023-04-19T21:21:14.546Z,4.70
2023-04-19T21:23:42.438Z,3.27
2023-04-19T21:26:10.495Z,3.10
2023-04-19T21:28:38.422Z,2.70
2023-04-19T21:31:06.576Z,3.07
2023-04-19T21:33:35.893Z,6.50
2023-04-19T21:36:04.016Z,2.93
2023-04-19T21:38:31.914Z,4.30
2023-04-19T21:40:59.859Z,5.57
2023-04-19T21:43:27.817Z,3.00
2023-04-19T21:45:55.780Z,3.00
2023-04-19T21:48:23.730Z,3.07
2023-04-19T21:50:52.894Z,4.20
2023-04-19T21:53:21.160Z,2.90
2023-04-19T21:55:49.979Z,4.43
2023-04-19T21:58:24.418Z,3.27
2023-04-19T22:00:53.675Z,4.20
2023-04-19T22:03:22.012Z,4.90
2023-04-19T22:05:50.056Z,4.20
2023-04-19T22:08:19.270Z,5.17
2023-04-19T22:10:50.220Z,4.57
2023-04-19T22:13:18.867Z,4.13
2023-04-19T22:15:46.909Z,4.60
2023-04-19T22:18:14.872Z,4.53
2023-04-19T22:20:42.906Z,3.27
2023-04-19T22:23:10.868Z,3.80
2023-04-19T22:25:40.244Z,4.93
2023-04-19T22:28:08.473Z,3.00
2023-04-19T22:30:36.528Z,3.67
2023-04-19T22:33:04.593Z,3.50
2023-04-19T22:35:32.904Z,4.10
2023-04-19T22:38:00.803Z,5.20
2023-04-19T22:40:28.937Z,2.60
2023-04-19T22:42:58.382Z,5.10
2023-04-19T22:45:26.487Z,5.23
2023-04-19T22:47:57.709Z,3.63
2023-04-19T22:50:25.787Z,5.30
2023-04-19T22:52:54.260Z,4.83
2023-04-19T22:55:25.094Z,4.13
2023-04-19T22:57:53.101Z,3.47
2023-04-19T23:00:22.457Z,3.13
2023-04-19T23:02:50.700Z,3.40
2023-04-19T23:05:19.023Z,3.47
2023-04-19T23:07:49.561Z,3.87
2023-04-19T23:10:18.293Z,3.27
2023-04-19T23:12:46.967Z,2.70
2023-04-19T23:15:14.912Z,3.67
2023-04-19T23:17:44.811Z,3.87
2023-04-19T23:20:14.009Z,4.00
2023-04-19T23:22:42.106Z,3.40
2023-04-19T23:25:11.026Z,4.53
2023-04-19T23:27:39.054Z,5.57
2023-04-19T23:30:08.942Z,4.40
2023-04-19T23:32:37.012Z,5.63
2023-04-19T23:35:06.907Z,4.60
2023-04-19T23:37:34.942Z,7.20
2023-04-19T23:40:05.723Z,3.80
2023-04-19T23:42:38.125Z,3.63
2023-04-19T23:45:07.774Z,4.68
2023-04-19T23:47:35.723Z,5.28
2023-04-19T23:50:04.603Z,5.45
2023-04-19T23:52:33.856Z,4.35
2023-04-19T23:55:01.690Z,3.33
2023-04-19T23:57:29.592Z,3.90
2023-04-19T23:59:57.462Z,4.60
